sensor_id;sensor_type;location;lat;lon;timestamp;P1;durP1;ratioP1;P2;durP2;ratioP2
20828;SDS011;10575;50.124;8.582;2022-09-17T00:00:03;5.75;;;1.45;;
20828;SDS011;10575;50.124;8.582;2022-09-17T00:02:29;6.10;;;1.63;;
20828;SDS011;10575;50.124;8.582;2022-09-17T00:04:54;3.50;;;1.23;;
20828;SDS011;10575;50.124;8.582;2022-09-17T00:07:20;3.95;;;1.48;;
20828;SDS011;10575;50.124;8.582;2022-09-17T00:09:45;4.07;;;1.10;;
20828;SDS011;10575;50.124;8.582;2022-09-17T00:12:11;2.10;;;1.10;;
20828;SDS011;10575;50.124;8.582;2022-09-17T00:14:36;2.78;;;1.10;;
20828;SDS011;10575;50.124;8.582;2022-09-17T00:17:02;8.27;;;1.45;;
20828;SDS011;10575;50.124;8.582;2022-09-17T00:19:27;3.40;;;1.15;;
20828;SDS011;10575;50.124;8.582;2022-09-17T00:21:53;2.92;;;1.00;;
20828;SDS011;10575;50.124;8.582;2022-09-17T00:24:18;7.82;;;1.85;;
20828;SDS011;10575;50.124;8.582;2022-09-17T00:26:45;9.35;;;1.50;;
20828;SDS011;10575;50.124;8.582;2022-09-17T00:29:11;4.60;;;1.30;;
20828;SDS011;10575;50.124;8.582;2022-09-17T00:31:37;3.30;;;1.02;;
20828;SDS011;10575;50.124;8.582;2022-09-17T00:34:04;7.38;;;1.02;;
20828;SDS011;10575;50.124;8.582;2022-09-17T00:36:30;6.03;;;1.52;;
20828;SDS011;10575;50.124;8.582;2022-09-17T00:38:58;3.33;;;1.05;;
20828;SDS011;10575;50.124;8.582;2022-09-17T00:41:25;4.20;;;1.60;;
20828;SDS011;10575;50.124;8.582;2022-09-17T00:43:54;3.28;;;1.42;;
20828;SDS011;10575;50.124;8.582;2022-09-17T00:46:25;7.30;;;1.20;;
20828;SDS011;10575;50.124;8.582;2022-09-17T00:49:03;3.08;;;1.30;;
20828;SDS011;10575;50.124;8.582;2022-09-17T00:51:35;7.53;;;1.65;;
20828;SDS011;10575;50.124;8.582;2022-09-17T00:54:04;4.05;;;1.02;;
20828;SDS011;10575;50.124;8.582;2022-09-17T00:56:33;6.28;;;1.27;;
20828;SDS011;10575;50.124;8.582;2022-09-17T00:59:01;2.60;;;1.08;;
20828;SDS011;10575;50.124;8.582;2022-09-17T01:01:27;3.22;;;1.58;;
20828;SDS011;10575;50.124;8.582;2022-09-17T01:03:54;2.42;;;1.30;;
20828;SDS011;10575;50.124;8.582;2022-09-17T01:06:24;5.47;;;1.10;;
20828;SDS011;10575;50.124;8.582;2022-09-17T01:16:58;6.40;;;1.95;;
20828;SDS011;10575;50.124;8.582;2022-09-17T01:22:33;5.38;;;1.17;;
20828;SDS011;10575;50.124;8.582;2022-09-17T01:25:20;7.65;;;1.70;;
20828;SDS011;10575;50.124;8.582;2022-09-17T01:33:41;5.00;;;1.30;;
20828;SDS011;10575;50.124;8.582;2022-09-17T01:36:21;4.88;;;1.58;;
20828;SDS011;10575;50.124;8.582;2022-09-17T01:39:17;6.80;;;1.45;;
20828;SDS011;10575;50.124;8.582;2022-09-17T01:47:33;2.47;;;1.30;;
20828;SDS011;10575;50.124;8.582;2022-09-17T01:50:12;4.97;;;1.15;;
20828;SDS011;10575;50.124;8.582;2022-09-17T01:52:41;5.40;;;1.45;;
20828;SDS011;10575;50.124;8.582;2022-09-17T01:55:10;8.90;;;1.60;;
20828;SDS011;10575;50.124;8.582;2022-09-17T01:57:41;8.00;;;1.80;;
20828;SDS011;10575;50.124;8.582;2022-09-17T02:00:12;5.13;;;1.40;;
20828;SDS011;10575;50.124;8.582;2022-09-17T02:02:46;7.40;;;1.80;;
20828;SDS011;10575;50.124;8.582;2022-09-17T02:05:18;5.28;;;1.70;;
20828;SDS011;10575;50.124;8.582;2022-09-17T02:08:05;2.60;;;1.27;;
20828;SDS011;10575;50.124;8.582;2022-09-17T02:10:44;6.35;;;1.42;;
20828;SDS011;10575;50.124;8.582;2022-09-17T02:13:16;4.43;;;1.13;;
20828;SDS011;10575;50.124;8.582;2022-09-17T02:15:54;7.15;;;1.30;;
20828;SDS011;10575;50.124;8.582;2022-09-17T02:18:26;5.43;;;1.75;;
20828;SDS011;10575;50.124;8.582;2022-09-17T02:21:04;6.43;;;1.52;;
20828;SDS011;10575;50.124;8.582;2022-09-17T02:23:35;6.57;;;1.80;;
20828;SDS011;10575;50.124;8.582;2022-09-17T02:26:09;5.03;;;1.50;;
20828;SDS011;10575;50.124;8.582;2022-09-17T02:28:46;3.00;;;1.35;;
20828;SDS011;10575;50.124;8.582;2022-09-17T02:31:15;7.00;;;1.88;;
20828;SDS011;10575;50.124;8.582;2022-09-17T02:33:42;6.28;;;1.52;;
20828;SDS011;10575;50.124;8.582;2022-09-17T02:36:12;6.75;;;1.85;;
20828;SDS011;10575;50.124;8.582;2022-09-17T02:38:37;4.82;;;2.35;;
20828;SDS011;10575;50.124;8.582;2022-09-17T02:46:41;5.35;;;1.55;;
20828;SDS011;10575;50.124;8.582;2022-09-17T02:49:28;6.05;;;1.75;;
20828;SDS011;10575;50.124;8.582;2022-09-17T02:52:16;6.03;;;1.50;;
20828;SDS011;10575;50.124;8.582;2022-09-17T02:57:41;7.60;;;1.90;;
20828;SDS011;10575;50.124;8.582;2022-09-17T03:00:14;3.70;;;1.70;;
20828;SDS011;10575;50.124;8.582;2022-09-17T03:02:47;4.50;;;1.55;;
20828;SDS011;10575;50.124;8.582;2022-09-17T03:05:18;7.85;;;2.08;;
20828;SDS011;10575;50.124;8.582;2022-09-17T03:07:45;6.30;;;1.90;;
20828;SDS011;10575;50.124;8.582;2022-09-17T03:10:11;6.50;;;1.95;;
20828;SDS011;10575;50.124;8.582;2022-09-17T03:12:37;5.07;;;1.75;;
20828;SDS011;10575;50.124;8.582;2022-09-17T03:15:03;5.20;;;1.88;;
20828;SDS011;10575;50.124;8.582;2022-09-17T03:17:29;5.53;;;2.00;;
20828;SDS011;10575;50.124;8.582;2022-09-17T03:19:55;5.32;;;2.58;;
20828;SDS011;10575;50.124;8.582;2022-09-17T03:22:21;4.38;;;1.92;;
20828;SDS011;10575;50.124;8.582;2022-09-17T03:24:47;3.63;;;1.73;;
20828;SDS011;10575;50.124;8.582;2022-09-17T03:27:12;6.43;;;1.95;;
20828;SDS011;10575;50.124;8.582;2022-09-17T03:29:38;5.32;;;2.05;;
20828;SDS011;10575;50.124;8.582;2022-09-17T03:32:03;9.13;;;2.13;;
20828;SDS011;10575;50.124;8.582;2022-09-17T03:34:29;7.43;;;1.67;;
20828;SDS011;10575;50.124;8.582;2022-09-17T03:36:55;7.07;;;1.67;;
20828;SDS011;10575;50.124;8.582;2022-09-17T03:39:20;6.47;;;1.80;;
20828;SDS011;10575;50.124;8.582;2022-09-17T03:41:46;6.65;;;1.80;;
20828;SDS011;10575;50.124;8.582;2022-09-17T03:44:11;5.10;;;1.92;;
20828;SDS011;10575;50.124;8.582;2022-09-17T03:46:37;7.18;;;1.92;;
20828;SDS011;10575;50.124;8.582;2022-09-17T03:49:02;8.95;;;1.85;;
20828;SDS011;10575;50.124;8.582;2022-09-17T03:51:28;4.07;;;2.10;;
20828;SDS011;10575;50.124;8.582;2022-09-17T03:53:54;8.45;;;1.70;;
20828;SDS011;10575;50.124;8.582;2022-09-17T03:56:19;6.57;;;1.70;;
20828;SDS011;10575;50.124;8.582;2022-09-17T03:58:45;3.38;;;1.80;;
20828;SDS011;10575;50.124;8.582;2022-09-17T04:01:10;2.85;;;1.80;;
20828;SDS011;10575;50.124;8.582;2022-09-17T04:03:36;5.93;;;1.77;;
20828;SDS011;10575;50.124;8.582;2022-09-17T04:06:02;9.00;;;1.77;;
20828;SDS011;10575;50.124;8.582;2022-09-17T04:08:27;5.60;;;1.80;;
20828;SDS011;10575;50.124;8.582;2022-09-17T04:10:53;5.05;;;2.33;;
20828;SDS011;10575;50.124;8.582;2022-09-17T04:13:19;6.90;;;1.90;;
20828;SDS011;10575;50.124;8.582;2022-09-17T04:15:45;5.65;;;1.58;;
20828;SDS011;10575;50.124;8.582;2022-09-17T04:18:11;9.55;;;1.80;;
20828;SDS011;10575;50.124;8.582;2022-09-17T04:20:37;5.93;;;1.52;;
20828;SDS011;10575;50.124;8.582;2022-09-17T04:23:03;2.75;;;1.80;;
20828;SDS011;10575;50.124;8.582;2022-09-17T04:25:31;7.32;;;1.90;;
20828;SDS011;10575;50.124;8.582;2022-09-17T04:27:56;5.50;;;1.63;;
20828;SDS011;10575;50.124;8.582;2022-09-17T04:30:22;11.70;;;1.80;;
20828;SDS011;10575;50.124;8.582;2022-09-17T04:32:47;5.88;;;1.80;;
20828;SDS011;10575;50.124;8.582;2022-09-17T04:35:13;5.78;;;1.95;;
20828;SDS011;10575;50.124;8.582;2022-09-17T04:37:38;3.92;;;1.60;;
20828;SDS011;10575;50.124;8.582;2022-09-17T04:40:04;4.57;;;1.63;;
20828;SDS011;10575;50.124;8.582;2022-09-17T04:42:31;3.55;;;1.65;;
20828;SDS011;10575;50.124;8.582;2022-09-17T04:44:56;7.63;;;2.33;;
20828;SDS011;10575;50.124;8.582;2022-09-17T04:47:22;5.22;;;1.77;;
20828;SDS011;10575;50.124;8.582;2022-09-17T04:49:48;5.18;;;1.63;;
20828;SDS011;10575;50.124;8.582;2022-09-17T04:52:14;5.07;;;2.10;;
20828;SDS011;10575;50.124;8.582;2022-09-17T04:54:39;1.63;;;1.52;;
20828;SDS011;10575;50.124;8.582;2022-09-17T04:57:05;3.58;;;1.50;;
20828;SDS011;10575;50.124;8.582;2022-09-17T04:59:30;3.70;;;1.60;;
20828;SDS011;10575;50.124;8.582;2022-09-17T05:01:56;5.53;;;1.60;;
20828;SDS011;10575;50.124;8.582;2022-09-17T05:04:22;4.60;;;1.60;;
20828;SDS011;10575;50.124;8.582;2022-09-17T05:06:47;4.28;;;1.55;;
20828;SDS011;10575;50.124;8.582;2022-09-17T05:09:13;6.72;;;1.83;;
20828;SDS011;10575;50.124;8.582;2022-09-17T05:11:39;5.22;;;1.40;;
20828;SDS011;10575;50.124;8.582;2022-09-17T05:14:04;8.43;;;2.50;;
20828;SDS011;10575;50.124;8.582;2022-09-17T05:16:30;3.95;;;1.70;;
20828;SDS011;10575;50.124;8.582;2022-09-17T05:18:55;5.15;;;1.60;;
20828;SDS011;10575;50.124;8.582;2022-09-17T05:21:21;6.53;;;1.88;;
20828;SDS011;10575;50.124;8.582;2022-09-17T05:23:47;7.82;;;1.83;;
20828;SDS011;10575;50.124;8.582;2022-09-17T05:26:13;4.60;;;2.15;;
20828;SDS011;10575;50.124;8.582;2022-09-17T05:28:39;3.88;;;1.70;;
20828;SDS011;10575;50.124;8.582;2022-09-17T05:31:05;6.68;;;3.45;;
20828;SDS011;10575;50.124;8.582;2022-09-17T05:33:31;7.90;;;1.88;;
20828;SDS011;10575;50.124;8.582;2022-09-17T05:35:56;5.93;;;2.30;;
20828;SDS011;10575;50.124;8.582;2022-09-17T05:38:22;3.70;;;2.30;;
20828;SDS011;10575;50.124;8.582;2022-09-17T05:40:48;3.50;;;1.70;;
20828;SDS011;10575;50.124;8.582;2022-09-17T05:43:13;4.20;;;2.03;;
20828;SDS011;10575;50.124;8.582;2022-09-17T05:45:39;3.08;;;2.03;;
20828;SDS011;10575;50.124;8.582;2022-09-17T05:48:06;5.78;;;2.35;;
20828;SDS011;10575;50.124;8.582;2022-09-17T05:50:34;5.63;;;2.25;;
20828;SDS011;10575;50.124;8.582;2022-09-17T05:53:03;3.15;;;2.08;;
20828;SDS011;10575;50.124;8.582;2022-09-17T05:55:30;7.55;;;3.20;;
20828;SDS011;10575;50.124;8.582;2022-09-17T05:57:56;8.43;;;2.95;;
20828;SDS011;10575;50.124;8.582;2022-09-17T06:00:21;8.10;;;2.50;;
20828;SDS011;10575;50.124;8.582;2022-09-17T06:02:53;6.60;;;2.50;;
20828;SDS011;10575;50.124;8.582;2022-09-17T06:05:22;7.65;;;2.80;;
20828;SDS011;10575;50.124;8.582;2022-09-17T06:07:48;6.43;;;2.95;;
20828;SDS011;10575;50.124;8.582;2022-09-17T06:10:14;8.13;;;2.90;;
20828;SDS011;10575;50.124;8.582;2022-09-17T06:12:39;10.07;;;3.53;;
20828;SDS011;10575;50.124;8.582;2022-09-17T06:15:05;9.35;;;3.97;;
20828;SDS011;10575;50.124;8.582;2022-09-17T06:17:32;11.85;;;4.65;;
20828;SDS011;10575;50.124;8.582;2022-09-17T06:19:59;14.50;;;4.30;;
20828;SDS011;10575;50.124;8.582;2022-09-17T06:22:24;11.52;;;4.45;;
20828;SDS011;10575;50.124;8.582;2022-09-17T06:24:50;11.55;;;4.32;;
20828;SDS011;10575;50.124;8.582;2022-09-17T06:27:15;8.07;;;3.92;;
20828;SDS011;10575;50.124;8.582;2022-09-17T06:29:41;9.60;;;4.13;;
20828;SDS011;10575;50.124;8.582;2022-09-17T06:32:07;10.75;;;4.32;;
20828;SDS011;10575;50.124;8.582;2022-09-17T06:34:36;10.55;;;4.00;;
20828;SDS011;10575;50.124;8.582;2022-09-17T06:37:03;17.45;;;4.82;;
20828;SDS011;10575;50.124;8.582;2022-09-17T06:39:28;7.82;;;4.20;;
20828;SDS011;10575;50.124;8.582;2022-09-17T06:41:54;14.60;;;4.65;;
20828;SDS011;10575;50.124;8.582;2022-09-17T06:44:19;7.38;;;4.20;;
20828;SDS011;10575;50.124;8.582;2022-09-17T06:46:47;10.27;;;4.10;;
20828;SDS011;10575;50.124;8.582;2022-09-17T06:49:13;11.75;;;4.75;;
20828;SDS011;10575;50.124;8.582;2022-09-17T06:51:41;13.25;;;4.45;;
20828;SDS011;10575;50.124;8.582;2022-09-17T06:54:07;17.10;;;5.53;;
20828;SDS011;10575;50.124;8.582;2022-09-17T06:56:33;10.43;;;4.55;;
20828;SDS011;10575;50.124;8.582;2022-09-17T06:58:58;11.05;;;3.83;;
20828;SDS011;10575;50.124;8.582;2022-09-17T07:01:24;7.80;;;3.60;;
20828;SDS011;10575;50.124;8.582;2022-09-17T07:03:50;10.63;;;4.15;;
20828;SDS011;10575;50.124;8.582;2022-09-17T07:06:16;9.70;;;3.55;;
20828;SDS011;10575;50.124;8.582;2022-09-17T07:08:41;6.10;;;2.88;;
20828;SDS011;10575;50.124;8.582;2022-09-17T07:11:07;6.80;;;3.33;;
20828;SDS011;10575;50.124;8.582;2022-09-17T07:13:33;10.35;;;4.05;;
20828;SDS011;10575;50.124;8.582;2022-09-17T07:15:59;12.82;;;5.15;;
20828;SDS011;10575;50.124;8.582;2022-09-17T07:18:26;11.23;;;3.58;;
20828;SDS011;10575;50.124;8.582;2022-09-17T07:20:53;11.75;;;3.10;;
20828;SDS011;10575;50.124;8.582;2022-09-17T07:23:26;4.82;;;2.33;;
20828;SDS011;10575;50.124;8.582;2022-09-17T07:26:04;7.63;;;2.83;;
20828;SDS011;10575;50.124;8.582;2022-09-17T07:28:37;8.65;;;2.95;;
20828;SDS011;10575;50.124;8.582;2022-09-17T07:31:04;5.88;;;3.08;;
20828;SDS011;10575;50.124;8.582;2022-09-17T07:33:30;7.30;;;3.42;;
20828;SDS011;10575;50.124;8.582;2022-09-17T07:36:00;7.15;;;3.50;;
20828;SDS011;10575;50.124;8.582;2022-09-17T07:38:27;5.82;;;2.47;;
20828;SDS011;10575;50.124;8.582;2022-09-17T07:43:32;7.82;;;3.30;;
20828;SDS011;10575;50.124;8.582;2022-09-17T07:45:59;6.55;;;2.90;;
20828;SDS011;10575;50.124;8.582;2022-09-17T07:48:27;5.70;;;2.55;;
20828;SDS011;10575;50.124;8.582;2022-09-17T07:50:54;5.70;;;2.55;;
20828;SDS011;10575;50.124;8.582;2022-09-17T07:53:20;9.35;;;2.58;;
20828;SDS011;10575;50.124;8.582;2022-09-17T07:55:52;7.97;;;2.95;;
20828;SDS011;10575;50.124;8.582;2022-09-17T07:58:22;7.05;;;2.88;;
20828;SDS011;10575;50.124;8.582;2022-09-17T08:00:52;5.68;;;2.40;;
20828;SDS011;10575;50.124;8.582;2022-09-17T08:03:18;8.63;;;2.70;;
20828;SDS011;10575;50.124;8.582;2022-09-17T08:05:43;8.02;;;3.40;;
20828;SDS011;10575;50.124;8.582;2022-09-17T08:08:09;9.45;;;2.88;;
20828;SDS011;10575;50.124;8.582;2022-09-17T08:10:35;6.68;;;3.20;;
20828;SDS011;10575;50.124;8.582;2022-09-17T08:13:00;7.60;;;4.05;;
20828;SDS011;10575;50.124;8.582;2022-09-17T08:15:26;10.98;;;3.42;;
20828;SDS011;10575;50.124;8.582;2022-09-17T08:17:52;11.93;;;3.70;;
20828;SDS011;10575;50.124;8.582;2022-09-17T08:20:18;7.70;;;3.85;;
20828;SDS011;10575;50.124;8.582;2022-09-17T08:22:44;9.65;;;3.70;;
20828;SDS011;10575;50.124;8.582;2022-09-17T08:25:09;8.98;;;3.40;;
20828;SDS011;10575;50.124;8.582;2022-09-17T08:27:35;4.75;;;2.70;;
20828;SDS011;10575;50.124;8.582;2022-09-17T08:30:05;4.72;;;2.15;;
20828;SDS011;10575;50.124;8.582;2022-09-17T08:32:31;5.30;;;2.22;;
20828;SDS011;10575;50.124;8.582;2022-09-17T08:34:57;3.75;;;1.80;;
20828;SDS011;10575;50.124;8.582;2022-09-17T08:37:22;3.60;;;1.70;;
20828;SDS011;10575;50.124;8.582;2022-09-17T08:39:48;5.97;;;1.92;;
20828;SDS011;10575;50.124;8.582;2022-09-17T08:44:40;4.68;;;2.25;;
20828;SDS011;10575;50.124;8.582;2022-09-17T08:47:26;3.25;;;1.98;;
20828;SDS011;10575;50.124;8.582;2022-09-17T08:49:58;4.20;;;2.20;;
20828;SDS011;10575;50.124;8.582;2022-09-17T08:55:19;4.57;;;1.88;;
20828;SDS011;10575;50.124;8.582;2022-09-17T09:00:45;3.08;;;1.60;;
20828;SDS011;10575;50.124;8.582;2022-09-17T09:03:26;3.95;;;1.70;;
20828;SDS011;10575;50.124;8.582;2022-09-17T09:06:13;5.68;;;2.50;;
20828;SDS011;10575;50.124;8.582;2022-09-17T09:08:41;3.97;;;1.90;;
20828;SDS011;10575;50.124;8.582;2022-09-17T09:11:15;4.70;;;2.08;;
20828;SDS011;10575;50.124;8.582;2022-09-17T09:13:47;6.13;;;2.40;;
20828;SDS011;10575;50.124;8.582;2022-09-17T09:16:21;5.72;;;2.60;;
20828;SDS011;10575;50.124;8.582;2022-09-17T09:18:50;5.57;;;2.15;;
20828;SDS011;10575;50.124;8.582;2022-09-17T09:21:25;6.57;;;2.10;;
20828;SDS011;10575;50.124;8.582;2022-09-17T09:26:47;3.40;;;1.98;;
20828;SDS011;10575;50.124;8.582;2022-09-17T09:29:27;7.63;;;2.08;;
20828;SDS011;10575;50.124;8.582;2022-09-17T09:34:35;7.47;;;2.00;;
20828;SDS011;10575;50.124;8.582;2022-09-17T09:37:13;10.68;;;2.15;;
20828;SDS011;10575;50.124;8.582;2022-09-17T09:40:45;4.70;;;1.80;;
20828;SDS011;10575;50.124;8.582;2022-09-17T09:43:18;5.13;;;1.85;;
20828;SDS011;10575;50.124;8.582;2022-09-17T09:56:52;3.38;;;1.83;;
20828;SDS011;10575;50.124;8.582;2022-09-17T09:59:24;3.35;;;1.77;;
20828;SDS011;10575;50.124;8.582;2022-09-17T10:01:50;6.65;;;1.90;;
20828;SDS011;10575;50.124;8.582;2022-09-17T10:04:23;5.57;;;2.03;;
20828;SDS011;10575;50.124;8.582;2022-09-17T10:06:51;5.22;;;1.88;;
20828;SDS011;10575;50.124;8.582;2022-09-17T10:09:27;3.75;;;1.73;;
20828;SDS011;10575;50.124;8.582;2022-09-17T10:14:35;6.38;;;1.90;;
20828;SDS011;10575;50.124;8.582;2022-09-17T10:19:42;9.85;;;2.50;;
20828;SDS011;10575;50.124;8.582;2022-09-17T10:24:47;5.78;;;1.98;;
20828;SDS011;10575;50.124;8.582;2022-09-17T10:27:15;7.05;;;2.00;;
20828;SDS011;10575;50.124;8.582;2022-09-17T10:29:44;3.58;;;1.42;;
20828;SDS011;10575;50.124;8.582;2022-09-17T10:32:14;5.97;;;1.77;;
20828;SDS011;10575;50.124;8.582;2022-09-17T10:35:03;6.97;;;2.00;;
20828;SDS011;10575;50.124;8.582;2022-09-17T10:37:48;8.60;;;2.38;;
20828;SDS011;10575;50.124;8.582;2022-09-17T10:42:50;5.90;;;1.67;;
20828;SDS011;10575;50.124;8.582;2022-09-17T10:45:36;5.57;;;1.65;;
20828;SDS011;10575;50.124;8.582;2022-09-17T10:48:04;4.03;;;1.65;;
20828;SDS011;10575;50.124;8.582;2022-09-17T10:50:39;6.57;;;1.60;;
20828;SDS011;10575;50.124;8.582;2022-09-17T10:53:05;8.05;;;1.63;;
20828;SDS011;10575;50.124;8.582;2022-09-17T10:55:57;5.15;;;1.30;;
20828;SDS011;10575;50.124;8.582;2022-09-17T10:58:36;5.90;;;1.50;;
20828;SDS011;10575;50.124;8.582;2022-09-17T11:01:37;7.30;;;1.48;;
20828;SDS011;10575;50.124;8.582;2022-09-17T11:04:25;3.15;;;1.30;;
20828;SDS011;10575;50.124;8.582;2022-09-17T11:09:22;8.73;;;1.80;;
20828;SDS011;10575;50.124;8.582;2022-09-17T11:12:16;9.23;;;1.50;;
20828;SDS011;10575;50.124;8.582;2022-09-17T11:17:42;8.80;;;1.20;;
20828;SDS011;10575;50.124;8.582;2022-09-17T11:20:29;4.03;;;1.10;;
20828;SDS011;10575;50.124;8.582;2022-09-17T11:28:43;4.38;;;1.77;;
20828;SDS011;10575;50.124;8.582;2022-09-17T11:31:36;3.15;;;1.30;;
20828;SDS011;10575;50.124;8.582;2022-09-17T11:34:29;8.55;;;1.27;;
20828;SDS011;10575;50.124;8.582;2022-09-17T11:39:58;7.53;;;1.35;;
20828;SDS011;10575;50.124;8.582;2022-09-17T11:42:44;11.88;;;1.75;;
20828;SDS011;10575;50.124;8.582;2022-09-17T11:45:24;2.42;;;1.10;;
20828;SDS011;10575;50.124;8.582;2022-09-17T11:47:57;4.45;;;1.25;;
20828;SDS011;10575;50.124;8.582;2022-09-17T11:58:07;3.75;;;1.00;;
20828;SDS011;10575;50.124;8.582;2022-09-17T12:00:40;2.97;;;1.10;;
20828;SDS011;10575;50.124;8.582;2022-09-17T12:03:47;2.15;;;1.15;;
20828;SDS011;10575;50.124;8.582;2022-09-17T12:06:08;1.50;;;0.70;;
20828;SDS011;10575;50.124;8.582;2022-09-17T12:08:45;1.48;;;0.82;;
20828;SDS011;10575;50.124;8.582;2022-09-17T12:11:33;4.28;;;1.00;;
20828;SDS011;10575;50.124;8.582;2022-09-17T12:14:14;5.30;;;1.05;;
20828;SDS011;10575;50.124;8.582;2022-09-17T12:16:57;3.40;;;1.05;;
20828;SDS011;10575;50.124;8.582;2022-09-17T12:19:37;4.93;;;1.08;;
20828;SDS011;10575;50.124;8.582;2022-09-17T12:22:10;4.05;;;1.10;;
20828;SDS011;10575;50.124;8.582;2022-09-17T12:24:56;4.63;;;0.90;;
20828;SDS011;10575;50.124;8.582;2022-09-17T12:27:34;6.25;;;1.13;;
20828;SDS011;10575;50.124;8.582;2022-09-17T12:30:08;4.28;;;0.90;;
20828;SDS011;10575;50.124;8.582;2022-09-17T12:43:30;2.40;;;0.85;;
20828;SDS011;10575;50.124;8.582;2022-09-17T12:48:34;4.82;;;1.17;;
20828;SDS011;10575;50.124;8.582;2022-09-17T12:54:14;5.75;;;1.20;;
20828;SDS011;10575;50.124;8.582;2022-09-17T12:57:05;5.13;;;1.20;;
20828;SDS011;10575;50.124;8.582;2022-09-17T13:00:17;2.30;;;1.05;;
20828;SDS011;10575;50.124;8.582;2022-09-17T13:02:39;5.40;;;2.33;;
20828;SDS011;10575;50.124;8.582;2022-09-17T13:08:17;3.63;;;1.10;;
20828;SDS011;10575;50.124;8.582;2022-09-17T13:13:48;2.78;;;0.90;;
20828;SDS011;10575;50.124;8.582;2022-09-17T13:21:58;2.92;;;0.60;;
20828;SDS011;10575;50.124;8.582;2022-09-17T13:24:45;3.63;;;0.85;;
20828;SDS011;10575;50.124;8.582;2022-09-17T13:27:23;2.75;;;0.75;;
20828;SDS011;10575;50.124;8.582;2022-09-17T13:34:57;2.88;;;0.90;;
20828;SDS011;10575;50.124;8.582;2022-09-17T13:37:39;5.90;;;1.05;;
20828;SDS011;10575;50.124;8.582;2022-09-17T13:40:33;1.45;;;0.52;;
20828;SDS011;10575;50.124;8.582;2022-09-17T13:45:32;1.98;;;0.80;;
20828;SDS011;10575;50.124;8.582;2022-09-17T13:48:02;5.07;;;0.57;;
20828;SDS011;10575;50.124;8.582;2022-09-17T13:50:32;1.23;;;0.70;;
20828;SDS011;10575;50.124;8.582;2022-09-17T13:53:08;4.28;;;0.77;;
20828;SDS011;10575;50.124;8.582;2022-09-17T13:55:49;3.45;;;0.82;;
20828;SDS011;10575;50.124;8.582;2022-09-17T14:13:56;1.95;;;0.57;;
20828;SDS011;10575;50.124;8.582;2022-09-17T14:19:16;7.38;;;0.75;;
20828;SDS011;10575;50.124;8.582;2022-09-17T14:29:41;2.97;;;0.70;;
20828;SDS011;10575;50.124;8.582;2022-09-17T14:32:13;3.33;;;0.70;;
20828;SDS011;10575;50.124;8.582;2022-09-17T14:34:42;4.90;;;0.68;;
20828;SDS011;10575;50.124;8.582;2022-09-17T14:37:10;2.90;;;0.80;;
20828;SDS011;10575;50.124;8.582;2022-09-17T14:39:38;1.45;;;0.60;;
20828;SDS011;10575;50.124;8.582;2022-09-17T14:42:06;2.30;;;0.55;;
20828;SDS011;10575;50.124;8.582;2022-09-17T14:44:57;2.97;;;1.08;;
20828;SDS011;10575;50.124;8.582;2022-09-17T14:47:26;2.55;;;0.80;;
20828;SDS011;10575;50.124;8.582;2022-09-17T14:49:52;2.15;;;0.70;;
20828;SDS011;10575;50.124;8.582;2022-09-17T14:55:13;3.08;;;0.65;;
20828;SDS011;10575;50.124;8.582;2022-09-17T14:57:43;2.38;;;0.82;;
20828;SDS011;10575;50.124;8.582;2022-09-17T15:00:16;1.48;;;0.60;;
20828;SDS011;10575;50.124;8.582;2022-09-17T15:02:56;2.58;;;0.60;;
20828;SDS011;10575;50.124;8.582;2022-09-17T15:05:26;1.15;;;0.70;;
20828;SDS011;10575;50.124;8.582;2022-09-17T15:10:35;1.95;;;0.60;;
20828;SDS011;10575;50.124;8.582;2022-09-17T15:13:10;5.53;;;0.90;;
20828;SDS011;10575;50.124;8.582;2022-09-17T15:15:38;2.50;;;0.88;;
20828;SDS011;10575;50.124;8.582;2022-09-17T15:18:03;3.17;;;0.80;;
20828;SDS011;10575;50.124;8.582;2022-09-17T15:20:29;1.92;;;0.85;;
20828;SDS011;10575;50.124;8.582;2022-09-17T15:25:34;3.35;;;1.05;;
20828;SDS011;10575;50.124;8.582;2022-09-17T15:28:04;2.85;;;0.63;;
20828;SDS011;10575;50.124;8.582;2022-09-17T15:30:49;2.22;;;0.70;;
20828;SDS011;10575;50.124;8.582;2022-09-17T15:33:15;2.45;;;0.70;;
20828;SDS011;10575;50.124;8.582;2022-09-17T15:35:56;1.70;;;0.50;;
20828;SDS011;10575;50.124;8.582;2022-09-17T15:38:27;3.08;;;0.60;;
20828;SDS011;10575;50.124;8.582;2022-09-17T15:40:54;4.57;;;0.75;;
20828;SDS011;10575;50.124;8.582;2022-09-17T15:46:46;2.78;;;0.75;;
20828;SDS011;10575;50.124;8.582;2022-09-17T15:49:26;0.75;;;0.47;;
20828;SDS011;10575;50.124;8.582;2022-09-17T15:54:55;2.60;;;0.65;;
20828;SDS011;10575;50.124;8.582;2022-09-17T15:57:21;2.78;;;0.60;;
20828;SDS011;10575;50.124;8.582;2022-09-17T15:59:48;1.25;;;0.95;;
20828;SDS011;10575;50.124;8.582;2022-09-17T16:02:27;1.65;;;0.50;;
20828;SDS011;10575;50.124;8.582;2022-09-17T16:08:17;2.40;;;0.60;;
20828;SDS011;10575;50.124;8.582;2022-09-17T16:10:44;4.30;;;0.77;;
20828;SDS011;10575;50.124;8.582;2022-09-17T16:13:10;4.03;;;1.00;;
20828;SDS011;10575;50.124;8.582;2022-09-17T16:15:35;1.58;;;0.70;;
20828;SDS011;10575;50.124;8.582;2022-09-17T16:18:01;3.22;;;1.17;;
20828;SDS011;10575;50.124;8.582;2022-09-17T16:20:27;3.70;;;0.73;;
20828;SDS011;10575;50.124;8.582;2022-09-17T16:22:53;1.45;;;0.80;;
20828;SDS011;10575;50.124;8.582;2022-09-17T16:25:24;2.47;;;0.70;;
20828;SDS011;10575;50.124;8.582;2022-09-17T16:30:46;1.00;;;0.50;;
20828;SDS011;10575;50.124;8.582;2022-09-17T16:33:13;0.85;;;0.55;;
20828;SDS011;10575;50.124;8.582;2022-09-17T16:35:41;1.85;;;0.60;;
20828;SDS011;10575;50.124;8.582;2022-09-17T16:38:07;0.90;;;0.60;;
20828;SDS011;10575;50.124;8.582;2022-09-17T16:40:34;3.70;;;0.95;;
20828;SDS011;10575;50.124;8.582;2022-09-17T16:43:03;0.63;;;0.60;;
20828;SDS011;10575;50.124;8.582;2022-09-17T16:45:29;0.80;;;0.50;;
20828;SDS011;10575;50.124;8.582;2022-09-17T16:47:55;0.65;;;0.50;;
20828;SDS011;10575;50.124;8.582;2022-09-17T16:50:20;2.15;;;0.63;;
20828;SDS011;10575;50.124;8.582;2022-09-17T16:52:46;1.55;;;0.85;;
20828;SDS011;10575;50.124;8.582;2022-09-17T16:55:13;3.88;;;1.00;;
20828;SDS011;10575;50.124;8.582;2022-09-17T16:57:40;2.17;;;1.02;;
20828;SDS011;10575;50.124;8.582;2022-09-17T17:00:06;1.58;;;0.80;;
20828;SDS011;10575;50.124;8.582;2022-09-17T17:02:40;2.38;;;0.50;;
20828;SDS011;10575;50.124;8.582;2022-09-17T17:05:06;2.65;;;0.70;;
20828;SDS011;10575;50.124;8.582;2022-09-17T17:07:33;2.65;;;0.90;;
20828;SDS011;10575;50.124;8.582;2022-09-17T17:10:00;1.42;;;0.93;;
20828;SDS011;10575;50.124;8.582;2022-09-17T17:12:32;3.10;;;0.95;;
20828;SDS011;10575;50.124;8.582;2022-09-17T17:14:58;3.00;;;0.60;;
20828;SDS011;10575;50.124;8.582;2022-09-17T17:17:25;3.13;;;0.70;;
20828;SDS011;10575;50.124;8.582;2022-09-17T17:19:50;1.42;;;0.68;;
20828;SDS011;10575;50.124;8.582;2022-09-17T17:22:16;1.35;;;0.80;;
20828;SDS011;10575;50.124;8.582;2022-09-17T17:24:42;0.90;;;0.50;;
20828;SDS011;10575;50.124;8.582;2022-09-17T17:27:07;0.60;;;0.52;;
20828;SDS011;10575;50.124;8.582;2022-09-17T17:29:33;1.95;;;0.55;;
20828;SDS011;10575;50.124;8.582;2022-09-17T17:32:01;1.83;;;0.60;;
20828;SDS011;10575;50.124;8.582;2022-09-17T17:34:27;2.75;;;0.68;;
20828;SDS011;10575;50.124;8.582;2022-09-17T17:36:54;0.73;;;0.50;;
20828;SDS011;10575;50.124;8.582;2022-09-17T17:39:20;1.23;;;0.52;;
20828;SDS011;10575;50.124;8.582;2022-09-17T17:41:46;2.05;;;0.80;;
20828;SDS011;10575;50.124;8.582;2022-09-17T17:44:11;2.10;;;0.73;;
20828;SDS011;10575;50.124;8.582;2022-09-17T17:46:37;3.83;;;0.60;;
20828;SDS011;10575;50.124;8.582;2022-09-17T17:49:04;1.90;;;0.80;;
20828;SDS011;10575;50.124;8.582;2022-09-17T17:51:30;2.95;;;0.80;;
20828;SDS011;10575;50.124;8.582;2022-09-17T17:53:56;1.52;;;0.70;;
20828;SDS011;10575;50.124;8.582;2022-09-17T17:56:22;2.00;;;0.75;;
20828;SDS011;10575;50.124;8.582;2022-09-17T17:58:47;2.15;;;0.82;;